createdAt,value
2022-08-09T00:00:11.334Z,71.58
2022-08-09T00:01:54.731Z,72.04
2022-08-09T00:04:05.700Z,72.03
2022-08-09T00:06:15.687Z,71.98
2022-08-09T00:07:13.123Z,72.35
2022-08-09T00:08:48.730Z,72.62
2022-08-09T00:10:24.517Z,72.48
2022-08-09T00:12:03.516Z,72.82
2022-08-09T00:13:38.472Z,72.86
2022-08-09T00:15:14.639Z,72.84
2022-08-09T00:16:47.053Z,72.93
2022-08-09T00:18:19.813Z,72.74
2022-08-09T00:19:53.601Z,72.77
2022-08-09T00:21:26.728Z,72.83
2022-08-09T00:22:58.770Z,73.03
2022-08-09T00:24:50.879Z,73.18
2022-08-09T00:26:30.102Z,73.23
2022-08-09T00:28:06.990Z,73.32
2022-08-09T00:30:23.587Z,73.72
2022-08-09T00:31:58.928Z,73.96
2022-08-09T00:33:32.672Z,74.19
2022-08-09T00:35:17.170Z,74.04
2022-08-09T00:36:49.576Z,74.19
2022-08-09T00:38:21.932Z,73.97
2022-08-09T00:40:09.430Z,73.94
2022-08-09T00:44:10.392Z,73.95
2022-08-09T00:44:10.959Z,74.17
2022-08-09T00:45:30.789Z,74.23
2022-08-09T00:47:07.153Z,74.51
2022-08-09T00:48:39.227Z,74.45
2022-08-09T02:21:27.499Z,77.32
2022-08-09T02:23:07.540Z,77.35
2022-08-09T02:24:41.146Z,77.29
2022-08-09T02:26:24.994Z,77.15
2022-08-09T02:28:20.702Z,77.29
2022-08-09T02:29:56.721Z,77.21
2022-08-09T02:31:39.821Z,77.71
2022-08-09T02:33:17.020Z,77.91
2022-08-09T02:34:55.907Z,78.11
2022-08-09T02:36:34.694Z,78.31
2022-08-09T02:38:06.995Z,78.19
2022-08-09T02:39:45.252Z,78.24
2022-08-09T02:41:42.665Z,78.02
2022-08-09T02:43:15.425Z,77.74
2022-08-09T02:44:54.128Z,77.62
2022-08-09T02:46:28.477Z,77.65
2022-08-09T02:48:19.435Z,77.52
2022-08-09T02:50:14.158Z,77.59
2022-08-09T02:51:52.208Z,77.81
2022-08-09T02:53:32.018Z,77.63
2022-08-09T02:55:20.878Z,77.58
2022-08-09T02:56:57.047Z,77.82
2022-08-09T02:58:32.794Z,77.81
2022-08-09T03:00:20.722Z,78.00
2022-08-09T03:02:06.187Z,77.91
2022-08-09T03:04:16.651Z,77.89
2022-08-09T03:05:34.366Z,77.77
2022-08-09T03:07:13.983Z,77.72
2022-08-09T03:08:47.377Z,78.22
2022-08-09T03:10:19.954Z,78.44
2022-08-09T03:12:05.944Z,78.25
2022-08-09T03:13:58.423Z,78.38
2022-08-09T03:15:40.432Z,78.55
2022-08-09T03:17:27.527Z,78.57
2022-08-09T03:19:01.586Z,77.97
2022-08-09T03:20:34.367Z,77.97
2022-08-09T03:22:12.383Z,78.36
2022-08-09T03:23:58.607Z,78.66
2022-08-09T03:25:57.897Z,78.81
2022-08-09T03:27:29.579Z,79.00
2022-08-09T03:29:22.993Z,79.15
2022-08-09T03:30:56.226Z,79.23
2022-08-09T03:32:31.122Z,79.38
2022-08-09T03:34:03.796Z,79.14
2022-08-09T03:36:14.138Z,78.77
2022-08-09T03:37:55.774Z,78.47
2022-08-09T03:39:22.430Z,78.62
2022-08-09T03:40:58.447Z,78.91
2022-08-09T03:42:31.036Z,78.69
2022-08-09T03:44:08.449Z,78.85
2022-08-09T03:46:05.364Z,79.17
2022-08-09T03:47:39.948Z,79.18
2022-08-09T03:49:17.490Z,78.98
2022-08-09T03:50:52.341Z,78.95
2022-08-09T03:52:26.122Z,78.80
2022-08-09T03:54:00.166Z,79.19
2022-08-09T03:55:35.915Z,79.26
2022-08-09T03:57:20.107Z,79.19
2022-08-09T03:58:53.056Z,79.46
2022-08-09T04:00:27.226Z,79.63
2022-08-09T04:01:59.528Z,79.63
2022-08-09T04:03:45.969Z,79.43
2022-08-09T04:05:27.541Z,79.65
2022-08-09T04:07:00.360Z,79.55
2022-08-09T04:08:33.791Z,79.40
2022-08-09T04:10:06.457Z,79.22
2022-08-09T04:11:55.660Z,79.35
2022-08-09T04:14:36.968Z,79.28
2022-08-09T04:15:40.562Z,79.43
2022-08-09T04:17:16.938Z,80.01
2022-08-09T04:18:50.991Z,79.41
2022-08-09T04:20:23.672Z,79.83
2022-08-09T04:21:58.454Z,80.11
2022-08-09T04:23:30.533Z,80.00
2022-08-09T04:25:03.576Z,79.99
2022-08-09T04:26:38.046Z,80.09
2022-08-09T04:28:10.822Z,80.20
2022-08-09T04:29:49.619Z,80.00
2022-08-09T04:31:22.422Z,80.22
2022-08-09T04:33:01.253Z,80.55
2022-08-09T04:34:36.653Z,80.60
2022-08-09T04:36:08.936Z,80.66
2022-08-09T04:37:45.387Z,80.18
2022-08-09T04:39:18.866Z,80.21
2022-08-09T04:40:56.442Z,80.15
2022-08-09T04:42:31.720Z,80.38
2022-08-09T04:44:12.325Z,79.92
2022-08-09T04:45:53.455Z,79.92
2022-08-09T04:47:27.347Z,79.22
2022-08-09T04:49:17.526Z,79.13
2022-08-09T04:51:03.186Z,78.67
2022-08-09T04:52:36.098Z,78.51
2022-08-09T04:54:09.911Z,78.38
2022-08-09T04:55:58.057Z,78.05
2022-08-09T04:57:54.005Z,77.88
2022-08-09T04:59:24.050Z,77.99
2022-08-09T05:01:03.089Z,77.80
2022-08-09T05:02:36.073Z,77.85
2022-08-09T05:04:08.457Z,77.97
2022-08-09T05:05:52.122Z,78.18
2022-08-09T05:07:33.163Z,79.16
2022-08-09T05:09:05.340Z,79.21
2022-08-09T05:10:39.088Z,79.18
2022-08-09T05:12:12.528Z,78.49
2022-08-09T05:13:44.940Z,77.96
2022-08-09T05:15:24.599Z,76.95
2022-08-09T05:18:36.706Z,76.44
2022-08-09T05:19:02.903Z,76.03
2022-08-09T05:20:35.119Z,74.70
2022-08-09T05:22:08.278Z,73.49
2022-08-09T05:24:02.375Z,73.60
2022-08-09T05:25:36.799Z,72.76
2022-08-09T05:27:09.260Z,72.89
2022-08-09T05:28:46.131Z,72.52
2022-08-09T05:30:19.546Z,72.65
2022-08-09T05:31:56.961Z,71.92
2022-08-09T05:33:32.892Z,71.69
2022-08-09T05:35:06.287Z,71.57
2022-08-09T05:36:39.892Z,71.50
2022-08-09T05:38:21.709Z,70.65
2022-08-09T05:39:54.379Z,71.02
2022-08-09T05:41:26.936Z,69.91
2022-08-09T05:42:59.367Z,69.92
2022-08-09T05:44:34.612Z,69.64
2022-08-09T05:46:07.675Z,69.26
2022-08-09T05:47:52.242Z,68.89
2022-08-09T05:50:24.510Z,69.99
2022-08-09T05:51:42.600Z,69.25
2022-08-09T05:53:21.434Z,69.25
2022-08-09T05:54:53.999Z,68.13
2022-08-09T05:56:28.809Z,68.43
2022-08-09T05:58:00.853Z,69.01
2022-08-09T05:59:33.241Z,68.91
2022-08-09T06:01:06.731Z,69.05
2022-08-09T06:02:38.813Z,68.28
2022-08-09T06:04:23.481Z,68.76
2022-08-09T06:06:04.333Z,68.74
2022-08-09T06:07:38.262Z,69.04
2022-08-09T06:09:40.799Z,69.90
2022-08-09T06:11:16.430Z,68.66
2022-08-09T06:13:02.788Z,68.56
2022-08-09T06:14:35.715Z,68.57
2022-08-09T06:16:08.555Z,68.32
2022-08-09T06:17:42.399Z,67.63
2022-08-09T06:19:19.283Z,64.61
2022-08-09T06:20:57.140Z,61.49
2022-08-09T06:22:29.924Z,61.13
2022-08-09T06:24:02.667Z,59.30
2022-08-09T06:25:35.103Z,58.51
2022-08-09T06:27:07.642Z,57.83
2022-08-09T06:28:43.372Z,57.12
2022-08-09T06:30:16.067Z,56.91
2022-08-09T06:32:08.501Z,57.14
2022-08-09T06:33:42.062Z,56.80
2022-08-09T06:35:21.340Z,57.22
2022-08-09T06:37:13.896Z,56.99
2022-08-09T06:38:50.150Z,55.44
2022-08-09T06:40:26.190Z,55.92
2022-08-09T06:42:11.177Z,55.88
2022-08-09T06:43:43.855Z,55.22
2022-08-09T06:46:04.719Z,54.67
2022-08-09T06:47:08.553Z,54.52
2022-08-09T06:48:43.162Z,54.40
2022-08-09T06:50:19.274Z,54.21
2022-08-09T06:51:54.871Z,54.57
2022-08-09T06:53:33.348Z,54.02
2022-08-09T06:55:12.767Z,53.85
2022-08-09T06:56:46.492Z,54.84
2022-08-09T07:00:48.978Z,54.65
2022-08-09T07:00:52.658Z,53.24
2022-08-09T07:02:05.005Z,54.05
2022-08-09T07:03:39.471Z,54.35
2022-08-09T07:05:24.955Z,53.00
2022-08-09T07:07:59.922Z,52.59
2022-08-09T07:09:57.309Z,52.22
2022-08-09T07:11:06.265Z,52.33
2022-08-09T07:12:42.007Z,53.29
2022-08-09T07:14:26.615Z,50.48
2022-08-09T07:16:41.668Z,51.24
2022-08-09T07:17:52.665Z,50.23
2022-08-09T07:19:28.825Z,51.06
2022-08-09T07:21:01.612Z,50.85
2022-08-09T07:22:36.250Z,51.51
2022-08-09T07:24:14.698Z,51.37
2022-08-09T07:25:48.240Z,51.65
2022-08-09T07:29:11.861Z,51.50
2022-08-09T07:30:45.843Z,50.03
2022-08-09T07:32:20.995Z,50.07
2022-08-09T07:33:55.885Z,49.87
2022-08-09T07:35:28.879Z,50.94
2022-08-09T07:37:15.929Z,51.15
2022-08-09T07:38:56.838Z,50.84
2022-08-09T07:41:00.514Z,50.69
2022-08-09T07:42:32.518Z,50.22
2022-08-09T07:44:05.560Z,50.40
2022-08-09T07:45:40.917Z,49.67
2022-08-09T07:47:13.272Z,49.18
2022-08-09T07:48:59.629Z,48.88
2022-08-09T07:50:36.723Z,48.06
2022-08-09T07:52:17.219Z,48.43
2022-08-09T07:54:04.800Z,48.32
2022-08-09T07:55:41.568Z,47.30
2022-08-09T07:57:35.954Z,48.15
2022-08-09T07:59:15.772Z,48.46
2022-08-09T08:01:05.968Z,48.58
2022-08-09T08:02:42.401Z,49.83
2022-08-09T08:04:15.415Z,49.46
2022-08-09T08:05:54.285Z,49.44
2022-08-09T08:08:43.397Z,49.34
2022-08-09T08:09:38.588Z,49.11
2022-08-09T08:12:11.045Z,49.26
2022-08-09T08:13:10.332Z,49.24
2022-08-09T08:14:43.596Z,49.80
2022-08-09T08:16:29.599Z,49.82
2022-08-09T08:18:04.374Z,49.66
2022-08-09T08:19:37.263Z,48.50
2022-08-09T08:21:12.486Z,48.99
2022-08-09T08:22:48.438Z,48.07
2022-08-09T08:24:20.840Z,47.35
2022-08-09T08:26:06.483Z,48.24
2022-08-09T08:27:41.060Z,47.06
2022-08-09T08:29:15.390Z,47.04
2022-08-09T08:30:52.605Z,46.55
2022-08-09T08:32:29.269Z,46.02
2022-08-09T08:34:02.393Z,46.38
2022-08-09T08:35:58.398Z,45.02
2022-08-09T08:37:41.396Z,45.16
2022-08-09T08:39:23.456Z,46.13
2022-08-09T08:40:56.769Z,46.13
2022-08-09T08:42:31.875Z,46.32
2022-08-09T08:44:05.487Z,46.02
2022-08-09T08:45:53.563Z,45.75
2022-08-09T08:47:38.565Z,45.00
2022-08-09T08:49:19.119Z,45.11
2022-08-09T08:50:52.168Z,44.98
2022-08-09T08:52:59.765Z,43.70
2022-08-09T08:54:29.669Z,43.07
2022-08-09T08:56:02.734Z,43.89
2022-08-09T08:57:35.878Z,43.71
2022-08-09T08:59:19.454Z,44.17
2022-08-09T09:00:54.277Z,41.57
2022-08-09T09:02:31.833Z,39.63
2022-08-09T09:04:05.531Z,39.78
2022-08-09T09:06:00.149Z,36.43
2022-08-09T09:07:36.920Z,36.58
2022-08-09T09:09:21.163Z,35.86
2022-08-09T09:11:13.636Z,39.28
2022-08-09T09:12:50.473Z,36.73
2022-08-09T09:14:26.497Z,36.75
2022-08-09T09:15:58.938Z,37.81
2022-08-09T09:17:48.571Z,36.93
2022-08-09T09:19:40.727Z,38.07
2022-08-09T09:21:13.918Z,37.88
2022-08-09T09:23:01.945Z,37.75
2022-08-09T09:24:38.007Z,37.95
2022-08-09T09:26:12.773Z,36.84
2022-08-09T09:28:04.161Z,36.37
2022-08-09T09:30:11.543Z,34.74
2022-08-09T09:32:06.039Z,35.05
2022-08-09T09:33:44.606Z,34.32
2022-08-09T09:35:17.755Z,33.71
2022-08-09T09:36:54.249Z,35.33
2022-08-09T09:38:43.423Z,34.70
2022-08-09T09:40:17.705Z,34.15
2022-08-09T09:41:51.093Z,34.92
2022-08-09T09:43:23.457Z,34.61
2022-08-09T09:45:01.041Z,35.15
2022-08-09T09:46:42.950Z,36.02
2022-08-09T09:48:19.560Z,34.27
2022-08-09T09:50:07.065Z,34.23
2022-08-09T09:51:47.847Z,35.62
2022-08-09T09:53:57.269Z,34.65
2022-08-09T09:55:28.924Z,35.76
2022-08-09T09:58:03.292Z,36.47
2022-08-09T09:59:14.162Z,33.48
2022-08-09T10:00:58.949Z,33.99
2022-08-09T10:02:45.847Z,34.35
2022-08-09T10:04:23.006Z,34.68
2022-08-09T10:06:05.008Z,35.24
2022-08-09T10:07:37.977Z,34.25
2022-08-09T10:09:54.557Z,35.46
2022-08-09T10:11:59.526Z,35.79
2022-08-09T10:13:42.940Z,35.23
2022-08-09T10:15:25.538Z,35.49
2022-08-09T10:17:39.609Z,33.94
2022-08-09T10:19:06.761Z,34.82
2022-08-09T10:20:45.164Z,35.14
2022-08-09T10:22:29.207Z,34.16
2022-08-09T10:24:03.949Z,33.92
2022-08-09T10:26:07.626Z,35.37
2022-08-09T10:27:34.614Z,35.49
2022-08-09T10:29:38.039Z,36.24
2022-08-09T10:32:59.422Z,34.97
2022-08-09T10:34:33.582Z,35.29
2022-08-09T10:36:12.262Z,34.70
2022-08-09T10:37:45.158Z,35.32
2022-08-09T10:39:19.936Z,33.50
2022-08-09T10:40:52.997Z,35.07
2022-08-09T10:42:28.702Z,35.05
2022-08-09T10:44:04.915Z,35.61
2022-08-09T10:45:58.421Z,35.23
2022-08-09T10:48:19.496Z,34.08
2022-08-09T10:49:54.579Z,32.10
2022-08-09T10:51:29.887Z,33.24
2022-08-09T10:53:23.229Z,31.57
2022-08-09T10:54:55.821Z,33.81
2022-08-09T10:56:30.634Z,32.53
2022-08-09T10:58:03.890Z,32.78
2022-08-09T10:59:43.151Z,31.42
2022-08-09T11:03:13.915Z,32.56
2022-08-09T11:03:28.042Z,29.28
2022-08-09T11:05:24.953Z,28.44
2022-08-09T11:07:02.201Z,28.54
2022-08-09T11:08:47.045Z,29.73
2022-08-09T11:10:53.224Z,30.72
2022-08-09T11:12:30.332Z,30.80
2022-08-09T11:14:38.512Z,31.32
2022-08-09T11:16:47.154Z,30.03
2022-08-09T11:18:46.283Z,28.96
2022-08-09T11:20:39.286Z,29.28
2022-08-09T11:22:24.253Z,29.20
2022-08-09T11:24:05.046Z,31.07
2022-08-09T11:25:47.111Z,31.02
2022-08-09T11:28:03.789Z,29.31
2022-08-09T11:30:05.266Z,30.60
2022-08-09T11:31:52.506Z,28.01
2022-08-09T11:33:48.063Z,29.18
2022-08-09T11:35:34.831Z,29.84
2022-08-09T11:37:40.681Z,28.74
2022-08-09T11:39:13.749Z,28.04
2022-08-09T11:40:49.890Z,28.32
2022-08-09T11:42:49.013Z,28.47
2022-08-09T11:44:21.753Z,26.92
2022-08-09T11:46:02.338Z,27.70
2022-08-09T11:48:01.308Z,28.36
2022-08-09T11:50:56.849Z,27.48
2022-08-09T11:53:02.757Z,27.81
2022-08-09T11:54:27.606Z,27.19
2022-08-09T11:56:14.944Z,26.91
2022-08-09T11:58:00.999Z,27.01
2022-08-09T11:59:44.344Z,27.51
2022-08-09T12:02:18.262Z,25.73
2022-08-09T12:03:56.668Z,27.50
2022-08-09T12:05:42.288Z,27.62
2022-08-09T12:07:19.593Z,27.75
2022-08-09T12:08:54.039Z,24.97
2022-08-09T12:10:38.807Z,26.55
2022-08-09T12:12:28.540Z,27.46
2022-08-09T12:14:36.464Z,26.63
2022-08-09T12:16:01.011Z,27.41
2022-08-09T12:17:44.556Z,27.50
2022-08-09T12:19:29.630Z,26.00
2022-08-09T12:21:03.206Z,25.87
2022-08-09T12:22:35.631Z,25.84
2022-08-09T12:24:10.249Z,25.88
2022-08-09T12:25:49.277Z,24.91
2022-08-09T12:29:13.385Z,26.95
2022-08-09T12:29:43.979Z,27.27
2022-08-09T12:31:58.785Z,26.38
2022-08-09T12:33:22.317Z,26.65
2022-08-09T12:35:02.995Z,25.70
2022-08-09T12:36:58.813Z,27.08
2022-08-09T12:38:42.032Z,26.63
2022-08-09T12:40:18.456Z,27.37
2022-08-09T12:41:51.675Z,25.46
2022-08-09T12:44:05.380Z,26.62
2022-08-09T12:45:33.484Z,26.75
2022-08-09T12:47:11.003Z,25.81
2022-08-09T12:48:45.057Z,26.76
2022-08-09T12:50:23.403Z,26.90
2022-08-09T12:52:01.605Z,27.51
2022-08-09T12:53:38.801Z,27.28
2022-08-09T12:56:12.981Z,27.67
2022-08-09T12:57:40.055Z,28.27
2022-08-09T12:59:14.304Z,29.39
2022-08-09T13:00:48.725Z,32.17
2022-08-09T13:02:21.385Z,30.90
2022-08-09T13:04:05.711Z,31.66
2022-08-09T13:05:51.618Z,31.43
2022-08-09T13:07:51.064Z,28.71
2022-08-09T13:09:32.121Z,30.96
2022-08-09T13:11:23.163Z,30.75
2022-08-09T13:13:09.671Z,28.84
2022-08-09T13:14:48.845Z,29.27
2022-08-09T13:16:22.652Z,28.64
2022-08-09T13:18:05.696Z,28.65
2022-08-09T13:20:09.799Z,29.85
2022-08-09T13:22:45.601Z,28.06
2022-08-09T13:24:17.232Z,27.11
2022-08-09T13:25:54.705Z,27.14
2022-08-09T13:27:31.195Z,26.71
2022-08-09T13:29:17.776Z,27.53
2022-08-09T13:32:13.912Z,27.28
2022-08-09T13:33:02.985Z,27.45
2022-08-09T13:34:40.458Z,28.08
2022-08-09T13:36:41.538Z,29.76
2022-08-09T13:38:17.557Z,30.46
2022-08-09T13:41:56.659Z,26.99
2022-08-09T13:42:00.934Z,27.71
2022-08-09T13:43:39.681Z,27.85
2022-08-09T13:45:13.148Z,27.37
2022-08-09T13:47:16.692Z,28.02
2022-08-09T13:48:42.288Z,27.90
2022-08-09T13:50:30.745Z,27.85
2022-08-09T13:52:05.040Z,27.12
2022-08-09T13:53:44.682Z,28.25
2022-08-09T13:55:17.590Z,27.70
2022-08-09T13:56:51.415Z,27.92
2022-08-09T13:58:23.741Z,27.50
2022-08-09T13:59:58.283Z,25.96
2022-08-09T14:02:01.316Z,26.54
2022-08-09T14:04:04.821Z,26.56
2022-08-09T14:05:57.102Z,26.75
2022-08-09T14:07:08.909Z,25.78
2022-08-09T14:08:42.871Z,26.57
2022-08-09T14:10:17.470Z,25.99
2022-08-09T14:12:15.335Z,25.30
2022-08-09T14:14:22.254Z,25.22
2022-08-09T14:16:10.491Z,23.50
2022-08-09T14:18:16.445Z,24.85
2022-08-09T14:19:26.471Z,26.18
2022-08-09T14:21:05.860Z,26.34
2022-08-09T14:22:38.832Z,25.63
2022-08-09T14:24:18.673Z,25.74
2022-08-09T14:25:57.112Z,26.99
2022-08-09T14:27:34.187Z,26.19
2022-08-09T14:30:34.077Z,25.99
2022-08-09T14:31:18.516Z,25.71
2022-08-09T14:32:55.907Z,25.79
2022-08-09T14:34:32.700Z,26.26
2022-08-09T14:36:19.792Z,26.98
2022-08-09T14:38:02.330Z,27.26
2022-08-09T14:39:46.516Z,26.04
2022-08-09T14:41:39.670Z,26.04
2022-08-09T14:43:18.515Z,26.15
2022-08-09T14:45:00.051Z,26.83
2022-08-09T14:46:58.036Z,25.07
2022-08-09T14:48:26.735Z,25.89
2022-08-09T14:50:02.067Z,26.68
2022-08-09T14:51:41.934Z,27.52
2022-08-09T14:53:15.430Z,26.76
2022-08-09T14:54:49.233Z,26.57
2022-08-09T14:56:22.718Z,26.24
2022-08-09T14:57:59.597Z,26.96
2022-08-09T14:59:31.991Z,27.51
2022-08-09T15:01:11.270Z,28.35
2022-08-09T15:02:47.356Z,28.67
2022-08-09T15:04:24.020Z,28.94
2022-08-09T15:06:01.683Z,29.43
2022-08-09T15:07:36.535Z,29.56
2022-08-09T15:09:09.010Z,30.01
2022-08-09T15:10:42.505Z,30.46
2022-08-09T15:12:14.904Z,30.07
2022-08-09T15:13:56.499Z,30.49
2022-08-09T15:15:38.993Z,30.67
2022-08-09T15:17:12.213Z,31.13
2022-08-09T15:18:49.416Z,31.76
2022-08-09T15:21:55.134Z,31.39
2022-08-09T15:22:17.541Z,31.10
2022-08-09T15:24:01.493Z,31.28
2022-08-09T15:25:41.705Z,32.00
2022-08-09T15:27:14.106Z,30.95
2022-08-09T15:28:54.789Z,31.49
2022-08-09T15:31:00.671Z,31.88
2022-08-09T15:32:29.388Z,32.00
2022-08-09T15:34:31.977Z,33.00
2022-08-09T15:36:01.501Z,31.90
2022-08-09T15:37:57.263Z,31.64
2022-08-09T15:39:34.803Z,32.44
2022-08-09T15:41:22.539Z,31.72
2022-08-09T15:42:55.026Z,32.35
2022-08-09T15:44:27.796Z,31.96
2022-08-09T15:46:31.641Z,32.18
2022-08-09T15:48:05.203Z,32.60
2022-08-09T15:49:40.294Z,31.98
2022-08-09T15:52:01.912Z,32.00
2022-08-09T15:54:03.884Z,31.70
2022-08-09T15:55:21.094Z,32.54
2022-08-09T15:56:53.305Z,32.08
2022-08-09T15:58:27.010Z,32.35
2022-08-09T15:59:59.729Z,32.35
2022-08-09T16:01:35.492Z,32.71
2022-08-09T16:03:08.539Z,32.23
2022-08-09T16:04:42.777Z,31.54
2022-08-09T16:06:27.375Z,30.96
2022-08-09T16:08:08.533Z,31.11
2022-08-09T16:10:02.484Z,31.22
2022-08-09T16:11:37.973Z,31.21
2022-08-09T16:13:20.964Z,32.03
2022-08-09T16:15:03.173Z,31.76
2022-08-09T16:16:37.995Z,31.14
2022-08-09T16:18:11.889Z,31.11
2022-08-09T16:19:49.363Z,31.21
2022-08-09T16:21:37.970Z,31.61
2022-08-09T16:23:11.971Z,31.96
2022-08-09T16:24:45.249Z,31.83
2022-08-09T16:26:35.316Z,32.94
2022-08-09T16:28:12.127Z,33.23
2022-08-09T16:29:50.644Z,32.91
2022-08-09T16:32:11.103Z,33.74
2022-08-09T16:33:18.530Z,33.30
2022-08-09T16:34:56.513Z,33.35
2022-08-09T16:36:30.933Z,32.83
2022-08-09T16:38:03.950Z,32.95
2022-08-09T16:39:47.861Z,33.20
2022-08-09T16:42:02.689Z,33.33
2022-08-09T16:43:20.912Z,34.15
2022-08-09T16:44:53.703Z,36.59
2022-08-09T16:46:29.856Z,37.03
2022-08-09T16:48:37.913Z,37.60
2022-08-09T16:50:29.396Z,38.32
2022-08-09T16:51:53.851Z,38.32
2022-08-09T16:53:34.275Z,38.69
2022-08-09T16:55:08.125Z,39.97
2022-08-09T16:56:49.538Z,40.74
2022-08-09T16:58:22.537Z,39.97
2022-08-09T16:59:57.458Z,39.70
2022-08-09T17:01:34.011Z,39.99
2022-08-09T17:03:07.974Z,40.46
2022-08-09T17:04:53.737Z,42.63
2022-08-09T17:06:28.840Z,43.75
2022-08-09T17:08:46.675Z,43.34
2022-08-09T17:10:01.744Z,43.74
2022-08-09T17:11:40.431Z,43.97
2022-08-09T17:13:14.618Z,43.59
2022-08-09T17:14:49.121Z,42.96
2022-08-09T17:16:23.152Z,44.04
2022-08-09T17:18:00.382Z,44.48
2022-08-09T17:19:46.331Z,44.76
2022-08-09T17:21:20.399Z,44.86
2022-08-09T17:22:52.896Z,45.11
2022-08-09T17:24:28.308Z,45.81
2022-08-09T17:26:03.369Z,45.54
2022-08-09T17:27:40.130Z,47.72
2022-08-09T17:29:22.029Z,47.94
2022-08-09T17:30:56.157Z,47.42
2022-08-09T17:32:37.478Z,48.22
2022-08-09T17:35:01.364Z,49.00
2022-08-09T17:36:03.703Z,49.97
2022-08-09T17:38:11.705Z,50.35
2022-08-09T17:39:52.248Z,49.03
2022-08-09T17:41:22.375Z,46.81
2022-08-09T17:43:32.589Z,46.36
2022-08-09T17:45:03.101Z,48.26
2022-08-09T17:46:38.945Z,48.17
2022-08-09T17:48:29.333Z,49.15
2022-08-09T17:50:12.561Z,49.34
2022-08-09T17:51:50.863Z,49.47
2022-08-09T17:53:23.109Z,50.07
2022-08-09T17:54:55.663Z,49.08
2022-08-09T17:56:35.473Z,48.94
2022-08-09T17:58:09.726Z,50.50
2022-08-09T17:59:42.976Z,50.83
2022-08-09T18:01:22.745Z,51.26
2022-08-09T18:02:58.362Z,50.90
2022-08-09T18:04:31.188Z,51.05
2022-08-09T18:06:03.904Z,51.79
2022-08-09T18:07:48.886Z,50.96
2022-08-09T18:09:23.684Z,52.13
2022-08-09T18:11:01.998Z,51.81
2022-08-09T18:12:40.754Z,51.70
2022-08-09T18:14:27.828Z,51.69
2022-08-09T18:16:07.520Z,51.40
2022-08-09T18:18:02.090Z,50.91
2022-08-09T18:20:54.133Z,51.32
2022-08-09T18:21:26.224Z,51.96
2022-08-09T18:23:04.681Z,52.05
2022-08-09T18:24:38.547Z,52.37
2022-08-09T18:26:11.748Z,51.56
2022-08-09T18:28:02.032Z,51.10
2022-08-09T18:30:40.805Z,51.86
2022-08-09T18:31:51.277Z,51.61
2022-08-09T18:33:23.280Z,52.15
2022-08-09T18:34:55.984Z,52.73
2022-08-09T18:36:32.426Z,53.54
2022-08-09T18:38:10.156Z,53.27
2022-08-09T18:39:48.365Z,52.61
2022-08-09T18:41:21.104Z,52.71
2022-08-09T18:43:00.065Z,53.34
2022-08-09T18:44:32.769Z,53.15
2022-08-09T18:46:49.221Z,53.79
2022-08-09T18:47:58.694Z,53.55
2022-08-09T18:49:31.854Z,53.28
2022-08-09T18:51:05.105Z,53.65
2022-08-09T18:52:39.051Z,53.89
2022-08-09T18:54:20.017Z,53.99
2022-08-09T18:56:05.800Z,54.16
2022-08-09T18:57:44.512Z,53.07
2022-08-09T18:59:17.718Z,53.00
2022-08-09T19:00:53.584Z,54.06
2022-08-09T19:02:33.142Z,53.54
2022-08-09T19:04:09.352Z,53.20
2022-08-09T19:06:02.101Z,54.40
2022-08-09T19:07:34.569Z,52.59
2022-08-09T19:09:07.922Z,53.22
2022-08-09T19:10:46.385Z,52.94
2022-08-09T19:12:20.842Z,53.41
2022-08-09T19:13:53.907Z,53.48
2022-08-09T19:15:32.456Z,52.85
2022-08-09T19:17:04.952Z,52.57
2022-08-09T19:18:45.384Z,53.12
2022-08-09T19:20:18.089Z,52.92
2022-08-09T19:22:04.317Z,53.19
2022-08-09T19:24:33.235Z,53.39
2022-08-09T19:26:01.554Z,53.04
2022-08-09T19:27:28.646Z,52.98
2022-08-09T19:29:03.488Z,54.06
2022-08-09T19:30:44.630Z,53.88
2022-08-09T19:32:17.318Z,54.28
2022-08-09T19:33:49.684Z,54.95
2022-08-09T19:35:26.210Z,54.88
2022-08-09T19:36:58.856Z,54.33
2022-08-09T19:38:31.343Z,55.10
2022-08-09T19:40:05.760Z,55.11
2022-08-09T19:41:38.456Z,55.50
2022-08-09T19:43:16.285Z,56.52
2022-08-09T19:45:08.140Z,56.97
2022-08-09T19:46:50.508Z,57.46
2022-08-09T19:49:00.520Z,57.37
2022-08-09T19:50:48.950Z,56.61
2022-08-09T19:52:12.317Z,56.97
2022-08-09T19:53:45.580Z,56.84
2022-08-09T19:55:30.680Z,57.03
2022-08-09T19:57:16.418Z,57.89
2022-08-09T19:58:56.189Z,58.13
2022-08-09T20:00:29.086Z,57.84
2022-08-09T20:02:15.626Z,58.11
2022-08-09T20:04:17.954Z,58.37
2022-08-09T20:05:50.815Z,58.58
2022-08-09T20:07:24.898Z,58.73
2022-08-09T20:09:06.355Z,58.47
2022-08-09T20:10:38.583Z,58.41
2022-08-09T20:12:31.704Z,58.63
2022-08-09T20:14:08.449Z,59.59
2022-08-09T20:16:33.645Z,60.00
2022-08-09T20:17:41.666Z,59.88
2022-08-09T20:19:47.706Z,60.77
2022-08-09T20:21:13.942Z,61.05
2022-08-09T20:22:48.654Z,61.01
2022-08-09T20:24:31.836Z,60.40
2022-08-09T20:26:06.780Z,60.64
2022-08-09T20:27:43.708Z,60.88
2022-08-09T20:29:18.921Z,60.86
2022-08-09T20:30:52.241Z,61.13
2022-08-09T20:32:41.386Z,60.93
2022-08-09T20:34:18.021Z,60.83
2022-08-09T20:35:53.758Z,60.49
2022-08-09T20:38:19.545Z,60.43
2022-08-09T20:40:14.021Z,60.67
2022-08-09T20:41:13.108Z,59.92
2022-08-09T20:42:46.651Z,60.30
2022-08-09T20:44:36.164Z,60.25
2022-08-09T20:46:33.210Z,60.09
2022-08-09T20:48:01.258Z,60.04
2022-08-09T20:49:33.777Z,60.12
2022-08-09T20:51:07.386Z,60.19
2022-08-09T20:52:53.477Z,60.43
2022-08-09T20:54:26.196Z,61.10
2022-08-09T20:56:02.917Z,61.00
2022-08-09T20:58:05.436Z,61.36
2022-08-09T20:59:50.144Z,61.52
2022-08-09T21:01:34.516Z,62.87
2022-08-09T21:03:12.298Z,62.50
2022-08-09T21:05:55.899Z,63.13
2022-08-09T21:06:44.669Z,63.06
2022-08-09T21:08:17.046Z,63.60
2022-08-09T21:09:56.701Z,64.34
2022-08-09T21:13:23.567Z,64.59
2022-08-09T21:14:57.531Z,65.11
2022-08-09T21:16:30.552Z,65.29
2022-08-09T21:18:25.888Z,65.22
2022-08-09T21:20:17.856Z,65.19
2022-08-09T21:21:56.750Z,65.63
2022-08-09T21:23:47.827Z,65.52
2022-08-09T21:25:44.047Z,65.49
2022-08-09T21:28:01.507Z,65.42
2022-08-09T21:29:24.877Z,65.16
2022-08-09T21:30:57.014Z,65.38
2022-08-09T21:32:33.818Z,66.14
2022-08-09T21:34:07.836Z,65.80
2022-08-09T21:35:51.046Z,65.84
2022-08-09T21:37:25.608Z,65.70
2022-08-09T21:39:07.422Z,65.62
2022-08-09T21:40:39.674Z,65.79
2022-08-09T21:42:13.178Z,65.77
2022-08-09T21:43:56.793Z,66.32
2022-08-09T21:45:31.133Z,66.37
2022-08-09T21:47:17.380Z,66.29
2022-08-09T21:48:53.694Z,66.60
2022-08-09T21:50:38.631Z,66.73
2022-08-09T21:52:17.803Z,66.55
2022-08-09T21:53:54.150Z,66.27
2022-08-09T21:55:26.486Z,66.32
2022-08-09T21:57:00.421Z,66.30
2022-08-09T21:58:33.299Z,65.98
2022-08-09T22:00:14.907Z,66.04
2022-08-09T22:02:00.385Z,66.29
2022-08-09T22:03:33.527Z,66.58
2022-08-09T22:05:23.419Z,66.31
2022-08-09T22:07:02.140Z,66.58
2022-08-09T22:08:36.828Z,67.04
2022-08-09T22:10:11.144Z,66.83
2022-08-09T22:12:04.298Z,67.16
2022-08-09T22:13:37.266Z,67.40
2022-08-09T22:15:16.551Z,67.77
2022-08-09T22:16:49.009Z,67.91
2022-08-09T22:18:23.992Z,68.17
2022-08-09T22:20:03.225Z,68.35
2022-08-09T22:21:50.228Z,68.49
2022-08-09T22:23:25.447Z,68.12
2022-08-09T22:26:06.755Z,68.25
2022-08-09T22:26:51.742Z,68.76
2022-08-09T22:28:29.686Z,68.74
2022-08-09T22:30:05.518Z,68.82
2022-08-09T22:31:44.672Z,69.13
2022-08-09T22:33:42.721Z,69.03
2022-08-09T22:36:01.492Z,69.12
2022-08-09T22:37:13.838Z,69.01
2022-08-09T22:38:46.259Z,69.01
2022-08-09T22:40:20.378Z,68.92
2022-08-09T22:41:52.627Z,68.59
2022-08-09T22:44:00.599Z,68.02
2022-08-09T22:48:12.783Z,67.65
2022-08-09T22:48:18.624Z,67.81
2022-08-09T22:49:10.189Z,67.98
2022-08-09T22:50:42.697Z,67.88
2022-08-09T22:52:25.295Z,67.63
2022-08-09T22:54:03.121Z,67.92
2022-08-09T22:57:18.009Z,67.57
2022-08-09T22:58:53.853Z,67.34
2022-08-09T23:00:29.592Z,67.14
2022-08-09T23:02:01.845Z,66.96
2022-08-09T23:04:04.252Z,66.75
2022-08-09T23:05:27.865Z,67.17
2022-08-09T23:08:01.513Z,67.56
2022-08-09T23:09:12.724Z,68.00
2022-08-09T23:10:44.846Z,68.32
2022-08-09T23:12:19.866Z,68.46
2022-08-09T23:13:56.893Z,68.70
2022-08-09T23:15:29.857Z,68.55
2022-08-09T23:17:01.885Z,68.43
2022-08-09T23:18:33.909Z,68.69
2022-08-09T23:20:08.369Z,68.94